sensor_id;sensor_type;location;lat;lon;timestamp;P1;durP1;ratioP1;P2;durP2;ratioP2
20065;SDS011;10193;48.884;9.182;2022-07-10T00:02:04;2.13;;;2.03;;
20065;SDS011;10193;48.884;9.182;2022-07-10T00:04:30;2.40;;;2.20;;
20065;SDS011;10193;48.884;9.182;2022-07-10T00:06:57;2.65;;;2.45;;
20065;SDS011;10193;48.884;9.182;2022-07-10T00:09:26;2.42;;;2.05;;
20065;SDS011;10193;48.884;9.182;2022-07-10T00:11:54;2.20;;;2.00;;
20065;SDS011;10193;48.884;9.182;2022-07-10T00:14:20;2.20;;;2.10;;
20065;SDS011;10193;48.884;9.182;2022-07-10T00:16:47;1.90;;;1.80;;
20065;SDS011;10193;48.884;9.182;2022-07-10T00:19:15;2.15;;;2.05;;
20065;SDS011;10193;48.884;9.182;2022-07-10T00:21:42;2.17;;;2.08;;
20065;SDS011;10193;48.884;9.182;2022-07-10T00:24:09;2.20;;;2.10;;
20065;SDS011;10193;48.884;9.182;2022-07-10T00:26:36;2.15;;;1.92;;
20065;SDS011;10193;48.884;9.182;2022-07-10T00:29:02;2.20;;;2.10;;
20065;SDS011;10193;48.884;9.182;2022-07-10T00:31:29;2.10;;;2.00;;
20065;SDS011;10193;48.884;9.182;2022-07-10T00:33:56;3.33;;;2.20;;
20065;SDS011;10193;48.884;9.182;2022-07-10T00:36:24;2.58;;;2.30;;
20065;SDS011;10193;48.884;9.182;2022-07-10T00:38:51;2.20;;;2.10;;
20065;SDS011;10193;48.884;9.182;2022-07-10T00:41:17;2.10;;;2.00;;
20065;SDS011;10193;48.884;9.182;2022-07-10T00:43:50;2.40;;;2.30;;
20065;SDS011;10193;48.884;9.182;2022-07-10T00:46:18;2.58;;;2.30;;
20065;SDS011;10193;48.884;9.182;2022-07-10T00:48:46;2.30;;;2.20;;
20065;SDS011;10193;48.884;9.182;2022-07-10T00:51:12;2.33;;;2.20;;
20065;SDS011;10193;48.884;9.182;2022-07-10T00:53:42;2.20;;;2.10;;
20065;SDS011;10193;48.884;9.182;2022-07-10T00:56:10;2.15;;;2.05;;
20065;SDS011;10193;48.884;9.182;2022-07-10T00:58:37;2.13;;;1.98;;
20065;SDS011;10193;48.884;9.182;2022-07-10T01:01:06;2.20;;;2.10;;
20065;SDS011;10193;48.884;9.182;2022-07-10T01:03:33;2.28;;;2.17;;
20065;SDS011;10193;48.884;9.182;2022-07-10T01:06:00;2.20;;;2.10;;
20065;SDS011;10193;48.884;9.182;2022-07-10T01:08:27;2.20;;;2.10;;
20065;SDS011;10193;48.884;9.182;2022-07-10T01:10:56;2.28;;;2.17;;
20065;SDS011;10193;48.884;9.182;2022-07-10T01:13:23;2.20;;;2.10;;
20065;SDS011;10193;48.884;9.182;2022-07-10T01:15:50;2.58;;;2.38;;
20065;SDS011;10193;48.884;9.182;2022-07-10T01:18:18;2.47;;;2.38;;
20065;SDS011;10193;48.884;9.182;2022-07-10T01:20:45;2.38;;;2.17;;
20065;SDS011;10193;48.884;9.182;2022-07-10T01:23:13;2.30;;;2.10;;
20065;SDS011;10193;48.884;9.182;2022-07-10T01:25:40;2.17;;;2.05;;
20065;SDS011;10193;48.884;9.182;2022-07-10T01:28:07;2.55;;;2.00;;
20065;SDS011;10193;48.884;9.182;2022-07-10T01:30:34;2.20;;;2.10;;
20065;SDS011;10193;48.884;9.182;2022-07-10T01:33:01;2.70;;;2.50;;
20065;SDS011;10193;48.884;9.182;2022-07-10T01:35:27;2.05;;;1.95;;
20065;SDS011;10193;48.884;9.182;2022-07-10T01:37:54;2.17;;;2.05;;
20065;SDS011;10193;48.884;9.182;2022-07-10T01:40:22;2.17;;;2.08;;
20065;SDS011;10193;48.884;9.182;2022-07-10T01:42:49;3.15;;;2.70;;
20065;SDS011;10193;48.884;9.182;2022-07-10T01:45:16;2.47;;;2.38;;
20065;SDS011;10193;48.884;9.182;2022-07-10T01:47:43;2.70;;;2.50;;
20065;SDS011;10193;48.884;9.182;2022-07-10T01:50:10;2.72;;;2.45;;
20065;SDS011;10193;48.884;9.182;2022-07-10T01:52:37;3.00;;;2.63;;
20065;SDS011;10193;48.884;9.182;2022-07-10T01:55:04;2.70;;;2.50;;
20065;SDS011;10193;48.884;9.182;2022-07-10T01:57:33;2.53;;;2.33;;
20065;SDS011;10193;48.884;9.182;2022-07-10T02:00:00;2.80;;;2.60;;
20065;SDS011;10193;48.884;9.182;2022-07-10T02:02:27;2.78;;;2.58;;
20065;SDS011;10193;48.884;9.182;2022-07-10T02:04:54;2.20;;;2.10;;
20065;SDS011;10193;48.884;9.182;2022-07-10T02:07:19;2.90;;;2.70;;
20065;SDS011;10193;48.884;9.182;2022-07-10T02:09:47;2.80;;;2.70;;
20065;SDS011;10193;48.884;9.182;2022-07-10T02:12:14;3.13;;;2.90;;
20065;SDS011;10193;48.884;9.182;2022-07-10T02:14:42;3.00;;;2.80;;
20065;SDS011;10193;48.884;9.182;2022-07-10T02:17:09;3.42;;;2.80;;
20065;SDS011;10193;48.884;9.182;2022-07-10T02:19:36;3.45;;;3.25;;
20065;SDS011;10193;48.884;9.182;2022-07-10T02:22:03;3.15;;;2.95;;
20065;SDS011;10193;48.884;9.182;2022-07-10T02:24:30;3.25;;;3.00;;
20065;SDS011;10193;48.884;9.182;2022-07-10T02:26:57;3.03;;;2.83;;
20065;SDS011;10193;48.884;9.182;2022-07-10T02:29:24;3.35;;;3.15;;
20065;SDS011;10193;48.884;9.182;2022-07-10T02:31:52;2.80;;;2.60;;
20065;SDS011;10193;48.884;9.182;2022-07-10T02:34:19;3.40;;;3.10;;
20065;SDS011;10193;48.884;9.182;2022-07-10T02:36:46;3.30;;;3.10;;
20065;SDS011;10193;48.884;9.182;2022-07-10T02:39:12;3.55;;;3.35;;
20065;SDS011;10193;48.884;9.182;2022-07-10T02:41:39;3.88;;;3.53;;
20065;SDS011;10193;48.884;9.182;2022-07-10T02:44:06;3.85;;;3.28;;
20065;SDS011;10193;48.884;9.182;2022-07-10T02:46:33;4.03;;;3.72;;
20065;SDS011;10193;48.884;9.182;2022-07-10T02:49:01;3.88;;;3.58;;
20065;SDS011;10193;48.884;9.182;2022-07-10T02:51:29;3.80;;;3.50;;
20065;SDS011;10193;48.884;9.182;2022-07-10T02:53:56;3.50;;;3.30;;
20065;SDS011;10193;48.884;9.182;2022-07-10T02:56:23;3.53;;;3.33;;
20065;SDS011;10193;48.884;9.182;2022-07-10T02:58:50;3.88;;;3.58;;
20065;SDS011;10193;48.884;9.182;2022-07-10T03:01:17;3.67;;;3.38;;
20065;SDS011;10193;48.884;9.182;2022-07-10T03:03:43;3.85;;;3.45;;
20065;SDS011;10193;48.884;9.182;2022-07-10T03:06:11;3.90;;;3.60;;
20065;SDS011;10193;48.884;9.182;2022-07-10T03:08:38;3.58;;;3.28;;
20065;SDS011;10193;48.884;9.182;2022-07-10T03:11:05;3.72;;;3.42;;
20065;SDS011;10193;48.884;9.182;2022-07-10T03:13:32;4.07;;;3.67;;
20065;SDS011;10193;48.884;9.182;2022-07-10T03:15:58;4.00;;;3.70;;
20065;SDS011;10193;48.884;9.182;2022-07-10T03:18:25;3.72;;;3.50;;
20065;SDS011;10193;48.884;9.182;2022-07-10T03:20:52;3.42;;;3.22;;
20065;SDS011;10193;48.884;9.182;2022-07-10T03:23:20;4.00;;;3.40;;
20065;SDS011;10193;48.884;9.182;2022-07-10T03:25:47;3.50;;;3.30;;
20065;SDS011;10193;48.884;9.182;2022-07-10T03:28:14;3.85;;;3.58;;
20065;SDS011;10193;48.884;9.182;2022-07-10T03:30:40;3.58;;;3.30;;
20065;SDS011;10193;48.884;9.182;2022-07-10T03:33:07;3.63;;;3.33;;
20065;SDS011;10193;48.884;9.182;2022-07-10T03:35:34;3.42;;;3.22;;
20065;SDS011;10193;48.884;9.182;2022-07-10T03:38:01;3.45;;;3.25;;
20065;SDS011;10193;48.884;9.182;2022-07-10T03:40:29;3.38;;;3.17;;
20065;SDS011;10193;48.884;9.182;2022-07-10T03:42:56;3.17;;;2.97;;
20065;SDS011;10193;48.884;9.182;2022-07-10T03:45:23;3.30;;;3.00;;
20065;SDS011;10193;48.884;9.182;2022-07-10T03:47:49;3.53;;;3.33;;
20065;SDS011;10193;48.884;9.182;2022-07-10T03:50:16;3.60;;;3.30;;
20065;SDS011;10193;48.884;9.182;2022-07-10T03:52:43;3.80;;;3.35;;
20065;SDS011;10193;48.884;9.182;2022-07-10T03:55:11;3.25;;;3.03;;
20065;SDS011;10193;48.884;9.182;2022-07-10T03:57:39;3.33;;;3.05;;
20065;SDS011;10193;48.884;9.182;2022-07-10T04:00:21;3.38;;;3.17;;
20065;SDS011;10193;48.884;9.182;2022-07-10T04:02:54;3.50;;;3.30;;
20065;SDS011;10193;48.884;9.182;2022-07-10T04:05:22;3.60;;;3.30;;
20065;SDS011;10193;48.884;9.182;2022-07-10T04:07:49;3.63;;;3.42;;
20065;SDS011;10193;48.884;9.182;2022-07-10T04:10:16;3.20;;;2.90;;
20065;SDS011;10193;48.884;9.182;2022-07-10T04:12:45;3.00;;;2.70;;
20065;SDS011;10193;48.884;9.182;2022-07-10T04:15:12;3.30;;;3.00;;
20065;SDS011;10193;48.884;9.182;2022-07-10T04:17:39;3.33;;;3.13;;
20065;SDS011;10193;48.884;9.182;2022-07-10T04:20:07;3.05;;;2.80;;
20065;SDS011;10193;48.884;9.182;2022-07-10T04:22:34;2.83;;;2.70;;
20065;SDS011;10193;48.884;9.182;2022-07-10T04:25:01;3.60;;;3.30;;
20065;SDS011;10193;48.884;9.182;2022-07-10T04:27:29;3.10;;;2.90;;
20065;SDS011;10193;48.884;9.182;2022-07-10T04:29:57;3.00;;;2.80;;
20065;SDS011;10193;48.884;9.182;2022-07-10T04:32:24;3.25;;;3.00;;
20065;SDS011;10193;48.884;9.182;2022-07-10T04:34:52;3.25;;;3.03;;
20065;SDS011;10193;48.884;9.182;2022-07-10T04:37:19;3.10;;;2.80;;
20065;SDS011;10193;48.884;9.182;2022-07-10T04:39:46;3.15;;;2.95;;
20065;SDS011;10193;48.884;9.182;2022-07-10T04:42:13;2.85;;;2.65;;
20065;SDS011;10193;48.884;9.182;2022-07-10T04:44:40;3.30;;;3.00;;
20065;SDS011;10193;48.884;9.182;2022-07-10T04:47:08;3.10;;;2.80;;
20065;SDS011;10193;48.884;9.182;2022-07-10T04:49:35;2.85;;;2.65;;
20065;SDS011;10193;48.884;9.182;2022-07-10T04:52:02;3.15;;;2.60;;
20065;SDS011;10193;48.884;9.182;2022-07-10T04:54:29;3.20;;;2.80;;
20065;SDS011;10193;48.884;9.182;2022-07-10T04:56:57;3.20;;;2.90;;
20065;SDS011;10193;48.884;9.182;2022-07-10T04:59:25;2.72;;;2.53;;
20065;SDS011;10193;48.884;9.182;2022-07-10T05:01:52;2.80;;;2.60;;
20065;SDS011;10193;48.884;9.182;2022-07-10T05:04:20;2.85;;;2.65;;
20065;SDS011;10193;48.884;9.182;2022-07-10T05:06:46;2.90;;;2.70;;
20065;SDS011;10193;48.884;9.182;2022-07-10T05:09:13;2.78;;;2.13;;
20065;SDS011;10193;48.884;9.182;2022-07-10T05:11:40;2.50;;;2.30;;
20065;SDS011;10193;48.884;9.182;2022-07-10T05:14:07;2.30;;;2.20;;
20065;SDS011;10193;48.884;9.182;2022-07-10T05:16:34;2.35;;;2.15;;
20065;SDS011;10193;48.884;9.182;2022-07-10T05:19:00;2.45;;;2.10;;
20065;SDS011;10193;48.884;9.182;2022-07-10T05:21:28;2.42;;;2.22;;
20065;SDS011;10193;48.884;9.182;2022-07-10T05:23:56;2.17;;;2.05;;
20065;SDS011;10193;48.884;9.182;2022-07-10T05:26:23;1.85;;;1.75;;
20065;SDS011;10193;48.884;9.182;2022-07-10T05:28:49;2.10;;;1.90;;
20065;SDS011;10193;48.884;9.182;2022-07-10T05:31:16;3.72;;;1.92;;
20065;SDS011;10193;48.884;9.182;2022-07-10T05:33:43;1.90;;;1.80;;
20065;SDS011;10193;48.884;9.182;2022-07-10T05:36:10;3.20;;;2.00;;
20065;SDS011;10193;48.884;9.182;2022-07-10T05:38:38;2.03;;;1.60;;
20065;SDS011;10193;48.884;9.182;2022-07-10T05:41:05;3.13;;;1.80;;
20065;SDS011;10193;48.884;9.182;2022-07-10T05:43:32;1.80;;;1.70;;
20065;SDS011;10193;48.884;9.182;2022-07-10T05:45:58;2.05;;;1.80;;
20065;SDS011;10193;48.884;9.182;2022-07-10T05:48:25;1.70;;;1.60;;
20065;SDS011;10193;48.884;9.182;2022-07-10T05:50:52;2.70;;;1.95;;
20065;SDS011;10193;48.884;9.182;2022-07-10T05:53:19;1.95;;;1.85;;
20065;SDS011;10193;48.884;9.182;2022-07-10T05:55:47;1.60;;;1.50;;
20065;SDS011;10193;48.884;9.182;2022-07-10T05:58:14;1.70;;;1.60;;
20065;SDS011;10193;48.884;9.182;2022-07-10T06:00:41;2.25;;;1.90;;
20065;SDS011;10193;48.884;9.182;2022-07-10T06:03:08;1.83;;;1.73;;
20065;SDS011;10193;48.884;9.182;2022-07-10T06:05:35;2.67;;;1.73;;
20065;SDS011;10193;48.884;9.182;2022-07-10T06:08:02;2.00;;;1.90;;
20065;SDS011;10193;48.884;9.182;2022-07-10T06:10:29;1.63;;;1.52;;
20065;SDS011;10193;48.884;9.182;2022-07-10T06:12:58;3.33;;;2.00;;
20065;SDS011;10193;48.884;9.182;2022-07-10T06:15:24;2.20;;;2.00;;
20065;SDS011;10193;48.884;9.182;2022-07-10T06:17:51;2.10;;;1.90;;
20065;SDS011;10193;48.884;9.182;2022-07-10T06:20:18;2.20;;;1.83;;
20065;SDS011;10193;48.884;9.182;2022-07-10T06:22:45;1.70;;;1.60;;
20065;SDS011;10193;48.884;9.182;2022-07-10T06:25:11;2.15;;;1.90;;
20065;SDS011;10193;48.884;9.182;2022-07-10T06:27:38;1.60;;;1.50;;
20065;SDS011;10193;48.884;9.182;2022-07-10T06:30:07;1.50;;;1.40;;
20065;SDS011;10193;48.884;9.182;2022-07-10T06:32:34;2.13;;;1.58;;
20065;SDS011;10193;48.884;9.182;2022-07-10T06:35:01;1.52;;;1.42;;
20065;SDS011;10193;48.884;9.182;2022-07-10T06:37:28;2.17;;;1.40;;
20065;SDS011;10193;48.884;9.182;2022-07-10T06:39:56;2.30;;;1.55;;
20065;SDS011;10193;48.884;9.182;2022-07-10T06:42:23;2.30;;;1.65;;
20065;SDS011;10193;48.884;9.182;2022-07-10T06:44:50;2.00;;;1.63;;
20065;SDS011;10193;48.884;9.182;2022-07-10T06:47:18;2.70;;;1.80;;
20065;SDS011;10193;48.884;9.182;2022-07-10T06:50:03;2.08;;;1.45;;
20065;SDS011;10193;48.884;9.182;2022-07-10T06:52:31;1.52;;;1.30;;
20065;SDS011;10193;48.884;9.182;2022-07-10T06:54:59;1.52;;;1.38;;
20065;SDS011;10193;48.884;9.182;2022-07-10T06:57:25;3.42;;;1.80;;
20065;SDS011;10193;48.884;9.182;2022-07-10T06:59:52;1.83;;;1.52;;
20065;SDS011;10193;48.884;9.182;2022-07-10T07:02:21;1.60;;;1.50;;
20065;SDS011;10193;48.884;9.182;2022-07-10T07:04:48;1.48;;;1.38;;
20065;SDS011;10193;48.884;9.182;2022-07-10T07:07:15;1.27;;;1.23;;
20065;SDS011;10193;48.884;9.182;2022-07-10T07:09:41;2.58;;;1.42;;
20065;SDS011;10193;48.884;9.182;2022-07-10T07:12:10;1.40;;;1.30;;
20065;SDS011;10193;48.884;9.182;2022-07-10T07:14:36;1.98;;;1.45;;
20065;SDS011;10193;48.884;9.182;2022-07-10T07:17:04;1.23;;;1.15;;
20065;SDS011;10193;48.884;9.182;2022-07-10T07:19:35;1.98;;;1.17;;
20065;SDS011;10193;48.884;9.182;2022-07-10T07:22:19;1.50;;;1.27;;
20065;SDS011;10193;48.884;9.182;2022-07-10T07:25:04;1.52;;;1.23;;
20065;SDS011;10193;48.884;9.182;2022-07-10T07:27:32;2.92;;;1.67;;
20065;SDS011;10193;48.884;9.182;2022-07-10T07:30:03;1.63;;;1.30;;
20065;SDS011;10193;48.884;9.182;2022-07-10T07:32:31;1.58;;;1.27;;
20065;SDS011;10193;48.884;9.182;2022-07-10T07:35:00;1.58;;;1.20;;
20065;SDS011;10193;48.884;9.182;2022-07-10T07:37:36;1.00;;;1.00;;
20065;SDS011;10193;48.884;9.182;2022-07-10T07:40:05;1.88;;;1.25;;
20065;SDS011;10193;48.884;9.182;2022-07-10T07:42:33;1.40;;;1.30;;
20065;SDS011;10193;48.884;9.182;2022-07-10T07:45:00;2.00;;;1.10;;
20065;SDS011;10193;48.884;9.182;2022-07-10T07:47:27;1.65;;;1.30;;
20065;SDS011;10193;48.884;9.182;2022-07-10T07:49:54;1.55;;;1.10;;
20065;SDS011;10193;48.884;9.182;2022-07-10T07:52:22;1.25;;;0.98;;
20065;SDS011;10193;48.884;9.182;2022-07-10T07:54:48;1.88;;;1.20;;
20065;SDS011;10193;48.884;9.182;2022-07-10T07:57:16;1.73;;;1.15;;
20065;SDS011;10193;48.884;9.182;2022-07-10T07:59:43;1.23;;;1.08;;
20065;SDS011;10193;48.884;9.182;2022-07-10T08:02:10;1.50;;;1.00;;
20065;SDS011;10193;48.884;9.182;2022-07-10T08:04:37;1.52;;;1.10;;
20065;SDS011;10193;48.884;9.182;2022-07-10T08:07:04;1.00;;;1.00;;
20065;SDS011;10193;48.884;9.182;2022-07-10T08:09:32;1.23;;;0.90;;
20065;SDS011;10193;48.884;9.182;2022-07-10T08:12:00;1.25;;;0.73;;
20065;SDS011;10193;48.884;9.182;2022-07-10T08:14:26;1.33;;;1.10;;
20065;SDS011;10193;48.884;9.182;2022-07-10T08:16:53;1.20;;;0.95;;
20065;SDS011;10193;48.884;9.182;2022-07-10T08:19:20;1.40;;;1.05;;
20065;SDS011;10193;48.884;9.182;2022-07-10T08:21:46;1.73;;;1.00;;
20065;SDS011;10193;48.884;9.182;2022-07-10T08:24:13;1.08;;;0.77;;
20065;SDS011;10193;48.884;9.182;2022-07-10T08:26:42;1.25;;;1.02;;
20065;SDS011;10193;48.884;9.182;2022-07-10T08:29:08;1.00;;;0.88;;
20065;SDS011;10193;48.884;9.182;2022-07-10T08:31:35;0.80;;;0.80;;
20065;SDS011;10193;48.884;9.182;2022-07-10T08:34:04;2.20;;;0.95;;
20065;SDS011;10193;48.884;9.182;2022-07-10T08:36:31;1.52;;;0.93;;
20065;SDS011;10193;48.884;9.182;2022-07-10T08:38:58;1.33;;;1.00;;
20065;SDS011;10193;48.884;9.182;2022-07-10T08:41:25;1.40;;;0.80;;
20065;SDS011;10193;48.884;9.182;2022-07-10T08:43:54;1.70;;;0.90;;
20065;SDS011;10193;48.884;9.182;2022-07-10T08:46:21;1.83;;;0.93;;
20065;SDS011;10193;48.884;9.182;2022-07-10T08:48:48;3.10;;;1.17;;
20065;SDS011;10193;48.884;9.182;2022-07-10T08:51:21;1.50;;;1.02;;
20065;SDS011;10193;48.884;9.182;2022-07-10T08:53:51;1.20;;;0.88;;
20065;SDS011;10193;48.884;9.182;2022-07-10T08:56:21;1.00;;;0.80;;
20065;SDS011;10193;48.884;9.182;2022-07-10T08:58:47;0.98;;;0.98;;
20065;SDS011;10193;48.884;9.182;2022-07-10T09:01:17;2.10;;;0.93;;
20065;SDS011;10193;48.884;9.182;2022-07-10T09:03:48;1.33;;;0.82;;
20065;SDS011;10193;48.884;9.182;2022-07-10T09:06:15;1.15;;;0.90;;
20065;SDS011;10193;48.884;9.182;2022-07-10T09:08:57;1.25;;;0.70;;
20065;SDS011;10193;48.884;9.182;2022-07-10T09:11:25;1.20;;;1.10;;
20065;SDS011;10193;48.884;9.182;2022-07-10T09:13:55;1.17;;;0.80;;
20065;SDS011;10193;48.884;9.182;2022-07-10T09:16:25;1.50;;;0.80;;
20065;SDS011;10193;48.884;9.182;2022-07-10T09:18:53;0.75;;;0.73;;
20065;SDS011;10193;48.884;9.182;2022-07-10T09:21:20;0.93;;;0.60;;
20065;SDS011;10193;48.884;9.182;2022-07-10T09:23:47;1.08;;;0.93;;
20065;SDS011;10193;48.884;9.182;2022-07-10T09:26:14;1.17;;;0.93;;
20065;SDS011;10193;48.884;9.182;2022-07-10T09:28:41;0.77;;;0.65;;
20065;SDS011;10193;48.884;9.182;2022-07-10T09:31:08;1.13;;;0.80;;
20065;SDS011;10193;48.884;9.182;2022-07-10T09:33:36;0.75;;;0.70;;
20065;SDS011;10193;48.884;9.182;2022-07-10T09:36:06;1.95;;;1.05;;
20065;SDS011;10193;48.884;9.182;2022-07-10T09:38:51;0.88;;;0.85;;
20065;SDS011;10193;48.884;9.182;2022-07-10T09:41:26;1.10;;;1.00;;
20065;SDS011;10193;48.884;9.182;2022-07-10T09:43:54;0.73;;;0.73;;
20065;SDS011;10193;48.884;9.182;2022-07-10T09:46:23;1.52;;;0.70;;
20065;SDS011;10193;48.884;9.182;2022-07-10T09:49:01;1.20;;;0.77;;
20065;SDS011;10193;48.884;9.182;2022-07-10T09:51:33;1.25;;;1.00;;
20065;SDS011;10193;48.884;9.182;2022-07-10T09:54:02;1.20;;;1.00;;
20065;SDS011;10193;48.884;9.182;2022-07-10T09:56:32;0.90;;;0.90;;
20065;SDS011;10193;48.884;9.182;2022-07-10T09:59:05;2.17;;;0.82;;
20065;SDS011;10193;48.884;9.182;2022-07-10T10:01:35;1.20;;;0.90;;
20065;SDS011;10193;48.884;9.182;2022-07-10T10:04:04;1.23;;;0.77;;
20065;SDS011;10193;48.884;9.182;2022-07-10T10:06:32;1.77;;;1.00;;
20065;SDS011;10193;48.884;9.182;2022-07-10T10:09:03;1.02;;;0.52;;
20065;SDS011;10193;48.884;9.182;2022-07-10T10:11:33;2.10;;;1.10;;
20065;SDS011;10193;48.884;9.182;2022-07-10T10:14:03;0.70;;;0.70;;
20065;SDS011;10193;48.884;9.182;2022-07-10T10:16:32;1.63;;;0.70;;
20065;SDS011;10193;48.884;9.182;2022-07-10T10:19:00;0.95;;;0.80;;
20065;SDS011;10193;48.884;9.182;2022-07-10T10:21:47;1.33;;;0.93;;
20065;SDS011;10193;48.884;9.182;2022-07-10T10:24:15;1.15;;;0.80;;
20065;SDS011;10193;48.884;9.182;2022-07-10T10:26:43;0.75;;;0.60;;
20065;SDS011;10193;48.884;9.182;2022-07-10T10:29:11;1.27;;;0.85;;
20065;SDS011;10193;48.884;9.182;2022-07-10T10:31:39;1.60;;;0.80;;
20065;SDS011;10193;48.884;9.182;2022-07-10T10:34:07;1.85;;;1.17;;
20065;SDS011;10193;48.884;9.182;2022-07-10T10:36:44;1.40;;;0.90;;
20065;SDS011;10193;48.884;9.182;2022-07-10T10:39:13;1.85;;;1.00;;
20065;SDS011;10193;48.884;9.182;2022-07-10T10:41:44;1.85;;;1.00;;
20065;SDS011;10193;48.884;9.182;2022-07-10T10:44:20;1.42;;;0.77;;
20065;SDS011;10193;48.884;9.182;2022-07-10T10:46:55;0.88;;;0.63;;
20065;SDS011;10193;48.884;9.182;2022-07-10T10:49:26;3.33;;;0.88;;
20065;SDS011;10193;48.884;9.182;2022-07-10T10:52:13;1.38;;;0.85;;
20065;SDS011;10193;48.884;9.182;2022-07-10T10:57:38;1.17;;;1.00;;
20065;SDS011;10193;48.884;9.182;2022-07-10T11:00:11;1.13;;;1.00;;
20065;SDS011;10193;48.884;9.182;2022-07-10T11:02:41;1.23;;;0.90;;
20065;SDS011;10193;48.884;9.182;2022-07-10T11:08:07;1.35;;;1.20;;
20065;SDS011;10193;48.884;9.182;2022-07-10T11:10:36;1.13;;;0.80;;
20065;SDS011;10193;48.884;9.182;2022-07-10T11:13:04;1.80;;;0.90;;
20065;SDS011;10193;48.884;9.182;2022-07-10T11:15:33;0.80;;;0.70;;
20065;SDS011;10193;48.884;9.182;2022-07-10T11:18:05;2.08;;;1.02;;
20065;SDS011;10193;48.884;9.182;2022-07-10T11:20:33;1.55;;;1.20;;
20065;SDS011;10193;48.884;9.182;2022-07-10T11:23:06;1.20;;;1.10;;
20065;SDS011;10193;48.884;9.182;2022-07-10T11:25:54;1.15;;;0.82;;
20065;SDS011;10193;48.884;9.182;2022-07-10T11:28:34;1.45;;;0.93;;
20065;SDS011;10193;48.884;9.182;2022-07-10T11:31:12;0.95;;;0.75;;
20065;SDS011;10193;48.884;9.182;2022-07-10T11:33:40;1.20;;;0.90;;
20065;SDS011;10193;48.884;9.182;2022-07-10T11:36:09;0.95;;;0.77;;
20065;SDS011;10193;48.884;9.182;2022-07-10T11:38:38;1.08;;;0.85;;
20065;SDS011;10193;48.884;9.182;2022-07-10T11:41:12;1.42;;;0.75;;
20065;SDS011;10193;48.884;9.182;2022-07-10T11:43:47;0.80;;;0.80;;
20065;SDS011;10193;48.884;9.182;2022-07-10T11:46:14;0.70;;;0.68;;
20065;SDS011;10193;48.884;9.182;2022-07-10T11:48:41;0.63;;;0.63;;
20065;SDS011;10193;48.884;9.182;2022-07-10T11:51:21;1.08;;;0.68;;
20065;SDS011;10193;48.884;9.182;2022-07-10T11:53:57;1.02;;;0.75;;
20065;SDS011;10193;48.884;9.182;2022-07-10T11:56:28;0.70;;;0.70;;
20065;SDS011;10193;48.884;9.182;2022-07-10T11:58:57;1.30;;;0.70;;
20065;SDS011;10193;48.884;9.182;2022-07-10T12:01:25;1.02;;;0.60;;
20065;SDS011;10193;48.884;9.182;2022-07-10T12:03:55;0.60;;;0.60;;
20065;SDS011;10193;48.884;9.182;2022-07-10T12:06:23;0.75;;;0.60;;
20065;SDS011;10193;48.884;9.182;2022-07-10T12:08:50;0.60;;;0.45;;
20065;SDS011;10193;48.884;9.182;2022-07-10T12:11:18;1.17;;;0.88;;
20065;SDS011;10193;48.884;9.182;2022-07-10T12:13:47;0.45;;;0.40;;
20065;SDS011;10193;48.884;9.182;2022-07-10T12:16:14;0.98;;;0.65;;
20065;SDS011;10193;48.884;9.182;2022-07-10T12:18:42;0.55;;;0.50;;
20065;SDS011;10193;48.884;9.182;2022-07-10T12:21:09;0.90;;;0.60;;
20065;SDS011;10193;48.884;9.182;2022-07-10T12:23:37;0.60;;;0.60;;
20065;SDS011;10193;48.884;9.182;2022-07-10T12:26:07;1.15;;;0.70;;
20065;SDS011;10193;48.884;9.182;2022-07-10T12:28:49;1.30;;;0.63;;
20065;SDS011;10193;48.884;9.182;2022-07-10T12:31:24;0.90;;;0.70;;
20065;SDS011;10193;48.884;9.182;2022-07-10T12:33:53;0.70;;;0.60;;
20065;SDS011;10193;48.884;9.182;2022-07-10T12:36:23;0.93;;;0.40;;
20065;SDS011;10193;48.884;9.182;2022-07-10T12:38:54;0.75;;;0.73;;
20065;SDS011;10193;48.884;9.182;2022-07-10T12:41:23;1.08;;;0.70;;
20065;SDS011;10193;48.884;9.182;2022-07-10T12:43:52;1.38;;;0.60;;
20065;SDS011;10193;48.884;9.182;2022-07-10T12:46:20;1.55;;;0.63;;
20065;SDS011;10193;48.884;9.182;2022-07-10T12:49:03;0.70;;;0.70;;
20065;SDS011;10193;48.884;9.182;2022-07-10T12:51:31;0.75;;;0.60;;
20065;SDS011;10193;48.884;9.182;2022-07-10T12:53:59;0.90;;;0.60;;
20065;SDS011;10193;48.884;9.182;2022-07-10T12:56:29;1.30;;;0.55;;
20065;SDS011;10193;48.884;9.182;2022-07-10T12:59:02;0.93;;;0.60;;
20065;SDS011;10193;48.884;9.182;2022-07-10T13:01:40;1.52;;;0.90;;
20065;SDS011;10193;48.884;9.182;2022-07-10T13:04:08;0.65;;;0.57;;
20065;SDS011;10193;48.884;9.182;2022-07-10T13:06:35;0.75;;;0.50;;
20065;SDS011;10193;48.884;9.182;2022-07-10T13:09:17;1.25;;;0.50;;
20065;SDS011;10193;48.884;9.182;2022-07-10T13:11:44;0.43;;;0.40;;
20065;SDS011;10193;48.884;9.182;2022-07-10T13:14:13;0.93;;;0.60;;
20065;SDS011;10193;48.884;9.182;2022-07-10T13:16:39;0.85;;;0.80;;
20065;SDS011;10193;48.884;9.182;2022-07-10T13:19:06;1.02;;;0.65;;
20065;SDS011;10193;48.884;9.182;2022-07-10T13:21:33;1.63;;;0.80;;
20065;SDS011;10193;48.884;9.182;2022-07-10T13:24:00;1.30;;;0.73;;
20065;SDS011;10193;48.884;9.182;2022-07-10T13:26:28;1.40;;;0.52;;
20065;SDS011;10193;48.884;9.182;2022-07-10T13:28:55;0.70;;;0.60;;
20065;SDS011;10193;48.884;9.182;2022-07-10T13:31:24;0.57;;;0.57;;
20065;SDS011;10193;48.884;9.182;2022-07-10T13:33:51;2.03;;;0.75;;
20065;SDS011;10193;48.884;9.182;2022-07-10T13:36:17;0.60;;;0.50;;
20065;SDS011;10193;48.884;9.182;2022-07-10T13:38:44;1.20;;;0.70;;
20065;SDS011;10193;48.884;9.182;2022-07-10T13:41:14;1.15;;;0.52;;
20065;SDS011;10193;48.884;9.182;2022-07-10T13:43:41;1.80;;;0.80;;
20065;SDS011;10193;48.884;9.182;2022-07-10T13:46:08;1.30;;;0.80;;
20065;SDS011;10193;48.884;9.182;2022-07-10T13:48:36;1.92;;;0.70;;
20065;SDS011;10193;48.884;9.182;2022-07-10T13:51:03;0.60;;;0.55;;
20065;SDS011;10193;48.884;9.182;2022-07-10T13:53:30;1.27;;;0.70;;
20065;SDS011;10193;48.884;9.182;2022-07-10T13:55:57;0.98;;;0.40;;
20065;SDS011;10193;48.884;9.182;2022-07-10T13:58:24;0.52;;;0.52;;
20065;SDS011;10193;48.884;9.182;2022-07-10T14:00:51;0.47;;;0.47;;
20065;SDS011;10193;48.884;9.182;2022-07-10T14:03:18;1.58;;;0.57;;
20065;SDS011;10193;48.884;9.182;2022-07-10T14:05:46;0.40;;;0.40;;
20065;SDS011;10193;48.884;9.182;2022-07-10T14:08:13;0.60;;;0.60;;
20065;SDS011;10193;48.884;9.182;2022-07-10T14:10:39;0.40;;;0.35;;
20065;SDS011;10193;48.884;9.182;2022-07-10T14:13:06;0.77;;;0.60;;
20065;SDS011;10193;48.884;9.182;2022-07-10T14:15:34;0.95;;;0.57;;
20065;SDS011;10193;48.884;9.182;2022-07-10T14:18:01;1.38;;;0.52;;
20065;SDS011;10193;48.884;9.182;2022-07-10T14:20:28;0.63;;;0.52;;
20065;SDS011;10193;48.884;9.182;2022-07-10T14:23:17;0.45;;;0.43;;
20065;SDS011;10193;48.884;9.182;2022-07-10T14:25:44;1.17;;;0.77;;
20065;SDS011;10193;48.884;9.182;2022-07-10T14:28:11;0.88;;;0.63;;
20065;SDS011;10193;48.884;9.182;2022-07-10T14:30:39;0.93;;;0.65;;
20065;SDS011;10193;48.884;9.182;2022-07-10T14:33:05;0.90;;;0.60;;
20065;SDS011;10193;48.884;9.182;2022-07-10T14:35:32;1.52;;;0.70;;
20065;SDS011;10193;48.884;9.182;2022-07-10T14:37:59;1.55;;;0.52;;
20065;SDS011;10193;48.884;9.182;2022-07-10T14:40:27;1.23;;;0.50;;
20065;SDS011;10193;48.884;9.182;2022-07-10T14:42:55;0.55;;;0.47;;
20065;SDS011;10193;48.884;9.182;2022-07-10T14:45:23;0.55;;;0.50;;
20065;SDS011;10193;48.884;9.182;2022-07-10T14:47:50;0.75;;;0.45;;
20065;SDS011;10193;48.884;9.182;2022-07-10T14:50:17;0.40;;;0.40;;
20065;SDS011;10193;48.884;9.182;2022-07-10T14:52:44;1.42;;;0.60;;
20065;SDS011;10193;48.884;9.182;2022-07-10T14:55:11;0.70;;;0.50;;
20065;SDS011;10193;48.884;9.182;2022-07-10T14:57:39;1.70;;;0.70;;
20065;SDS011;10193;48.884;9.182;2022-07-10T15:00:06;0.60;;;0.60;;
20065;SDS011;10193;48.884;9.182;2022-07-10T15:02:34;1.50;;;0.80;;